createdAt,value
2022-07-31T00:02:08.753Z,55.80
2022-07-31T00:04:35.758Z,56.10
2022-07-31T00:07:03.617Z,56.00
2022-07-31T00:09:52.928Z,56.00
2022-07-31T00:12:17.551Z,56.00
2022-07-31T00:14:44.840Z,55.90
2022-07-31T00:17:11.526Z,55.90
2022-07-31T00:19:38.252Z,55.90
2022-07-31T00:22:04.992Z,55.90
2022-07-31T00:24:31.751Z,55.80
2022-07-31T00:26:58.494Z,55.90
2022-07-31T00:29:25.272Z,56.10
2022-07-31T00:31:53.221Z,56.20
2022-07-31T00:34:19.989Z,56.30
2022-07-31T00:36:46.696Z,56.40
2022-07-31T00:39:13.452Z,56.50
2022-07-31T00:41:40.974Z,56.70
2022-07-31T00:44:12.226Z,56.80
2022-07-31T00:46:40.257Z,56.90
2022-07-31T00:49:10.107Z,57.00
2022-07-31T00:51:40.450Z,57.30
2022-07-31T00:54:09.038Z,57.60
2022-07-31T00:56:36.490Z,57.60
2022-07-31T00:59:03.817Z,57.70
2022-07-31T01:01:31.085Z,57.80
2022-07-31T01:03:58.240Z,57.70
2022-07-31T01:06:24.917Z,57.60
2022-07-31T01:08:51.644Z,57.80
2022-07-31T01:11:28.014Z,57.70
2022-07-31T01:13:59.268Z,57.80
2022-07-31T01:16:29.556Z,58.00
2022-07-31T01:18:58.457Z,58.10
2022-07-31T01:21:35.379Z,58.30
2022-07-31T01:24:05.399Z,58.30
2022-07-31T01:27:04.694Z,58.40
2022-07-31T01:29:44.260Z,58.40
2022-07-31T01:32:15.921Z,58.60
2022-07-31T01:34:49.764Z,58.30
2022-07-31T01:37:23.536Z,58.30
2022-07-31T01:39:56.889Z,58.10
2022-07-31T01:42:25.623Z,58.00
2022-07-31T01:44:56.767Z,57.90
2022-07-31T01:47:27.678Z,58.00
2022-07-31T01:49:58.431Z,58.10
2022-07-31T01:52:28.315Z,58.20
2022-07-31T01:54:56.803Z,58.10
2022-07-31T01:57:25.853Z,58.20
2022-07-31T01:59:56.748Z,58.30
2022-07-31T02:02:44.800Z,58.40
2022-07-31T02:05:12.656Z,58.60
2022-07-31T02:07:41.985Z,58.60
2022-07-31T02:10:11.191Z,58.60
2022-07-31T02:12:40.047Z,58.60
2022-07-31T02:15:10.643Z,58.70
2022-07-31T02:17:41.461Z,58.80
2022-07-31T02:20:24.789Z,58.60
2022-07-31T02:22:55.574Z,58.70
2022-07-31T02:25:22.699Z,58.70
2022-07-31T02:27:57.836Z,58.70
2022-07-31T02:30:39.273Z,58.90
2022-07-31T02:33:11.499Z,59.00
2022-07-31T02:35:43.915Z,59.20
2022-07-31T02:38:22.136Z,59.40
2022-07-31T02:40:54.841Z,59.60
2022-07-31T02:43:21.617Z,59.80
2022-07-31T02:45:48.628Z,60.00
2022-07-31T02:48:16.020Z,60.10
2022-07-31T02:50:47.335Z,60.20
2022-07-31T02:53:14.198Z,60.30
2022-07-31T02:55:45.282Z,60.40
2022-07-31T02:58:12.410Z,60.50
2022-07-31T03:00:39.639Z,60.60
2022-07-31T03:03:06.678Z,60.80
2022-07-31T03:05:33.464Z,60.80
2022-07-31T03:08:00.254Z,60.80
2022-07-31T03:10:27.603Z,61.40
2022-07-31T03:13:05.276Z,60.90
2022-07-31T03:15:32.709Z,60.90
2022-07-31T03:18:00.696Z,61.00
2022-07-31T03:20:36.636Z,61.20
2022-07-31T03:23:04.280Z,61.20
2022-07-31T03:25:33.355Z,61.20
2022-07-31T03:28:02.749Z,61.30
2022-07-31T03:30:29.486Z,61.30
2022-07-31T03:32:57.940Z,61.40
2022-07-31T03:35:25.256Z,61.60
2022-07-31T03:37:52.399Z,61.70
2022-07-31T03:40:19.409Z,61.70
2022-07-31T03:42:48.670Z,61.90
2022-07-31T03:45:16.264Z,62.10
2022-07-31T03:47:43.096Z,62.30
2022-07-31T03:50:10.904Z,62.40
2022-07-31T03:52:38.103Z,62.50
2022-07-31T03:55:07.887Z,62.70
2022-07-31T03:57:37.109Z,63.10
2022-07-31T04:00:07.933Z,63.30
2022-07-31T04:02:44.838Z,63.80
2022-07-31T04:05:29.732Z,64.10
2022-07-31T04:07:56.608Z,64.60
2022-07-31T04:10:23.550Z,65.10
2022-07-31T04:12:50.232Z,65.50
2022-07-31T04:15:17.595Z,66.00
2022-07-31T04:17:45.363Z,66.40
2022-07-31T04:20:15.413Z,66.90
2022-07-31T04:22:42.395Z,67.20
2022-07-31T04:25:17.271Z,67.40
2022-07-31T04:27:48.156Z,67.60
2022-07-31T04:30:15.415Z,67.70
2022-07-31T04:32:43.899Z,67.80
2022-07-31T04:35:13.660Z,68.00
2022-07-31T04:37:40.964Z,68.10
2022-07-31T04:40:16.002Z,68.20
2022-07-31T04:42:42.739Z,68.30
2022-07-31T04:45:09.826Z,68.30
2022-07-31T04:47:38.099Z,68.40
2022-07-31T04:50:05.580Z,68.50
2022-07-31T04:52:32.759Z,68.60
2022-07-31T04:55:05.993Z,68.50
2022-07-31T04:57:32.803Z,68.40
2022-07-31T05:00:01.284Z,68.20
2022-07-31T05:02:31.876Z,68.10
2022-07-31T05:04:58.616Z,67.90
2022-07-31T05:07:32.655Z,67.90
2022-07-31T05:10:04.412Z,67.70
2022-07-31T05:12:31.581Z,67.60
2022-07-31T05:14:58.349Z,67.50
2022-07-31T05:17:25.745Z,67.50
2022-07-31T05:20:19.291Z,67.60
2022-07-31T05:23:06.445Z,67.70
2022-07-31T05:25:49.820Z,67.80
2022-07-31T05:28:16.532Z,67.90
2022-07-31T05:30:43.715Z,68.10
2022-07-31T05:33:11.357Z,68.20
2022-07-31T05:35:38.442Z,68.30
2022-07-31T05:38:11.865Z,68.40
2022-07-31T05:40:59.070Z,68.40
2022-07-31T05:43:44.478Z,68.60
2022-07-31T05:46:19.805Z,67.90
2022-07-31T05:48:46.568Z,68.60
2022-07-31T05:51:13.891Z,68.70
2022-07-31T05:53:41.317Z,68.80
2022-07-31T05:56:38.687Z,68.90
2022-07-31T05:59:05.427Z,68.30
2022-07-31T06:01:32.257Z,68.90
2022-07-31T06:04:03.589Z,69.20
2022-07-31T06:06:33.882Z,69.30
2022-07-31T06:09:04.449Z,69.40
2022-07-31T06:11:35.487Z,69.50
2022-07-31T06:14:02.358Z,69.50
2022-07-31T06:16:40.725Z,69.70
2022-07-31T06:19:07.664Z,69.70
2022-07-31T06:21:35.656Z,69.80
2022-07-31T06:24:02.478Z,69.70
2022-07-31T06:26:37.049Z,69.60
2022-07-31T06:29:04.587Z,69.60
2022-07-31T06:31:31.481Z,69.40
2022-07-31T06:33:58.902Z,69.30
2022-07-31T06:36:33.414Z,69.30
2022-07-31T06:39:02.369Z,69.40
2022-07-31T06:41:47.535Z,69.60
2022-07-31T06:44:34.964Z,69.60
2022-07-31T06:47:31.540Z,69.80
2022-07-31T06:50:14.467Z,69.80
2022-07-31T06:52:48.585Z,69.80
2022-07-31T06:55:15.550Z,69.80
2022-07-31T06:57:42.358Z,69.90
2022-07-31T07:00:15.212Z,70.00
2022-07-31T07:02:47.470Z,70.60
2022-07-31T07:05:14.430Z,70.20
2022-07-31T07:07:41.442Z,70.70
2022-07-31T07:10:09.174Z,70.00
2022-07-31T07:12:54.478Z,70.10
2022-07-31T07:15:21.955Z,69.70
2022-07-31T07:17:48.728Z,69.90
2022-07-31T07:20:20.920Z,69.60
2022-07-31T07:22:47.751Z,69.30
2022-07-31T07:25:24.190Z,68.90
2022-07-31T07:27:51.997Z,68.80
2022-07-31T07:30:18.751Z,68.60
2022-07-31T07:32:45.691Z,68.70
2022-07-31T07:35:12.493Z,68.90
2022-07-31T07:37:53.499Z,69.30
2022-07-31T07:40:21.341Z,69.60
2022-07-31T07:42:49.176Z,69.50
2022-07-31T07:45:15.945Z,69.70
2022-07-31T07:48:02.288Z,69.60
2022-07-31T07:50:33.488Z,69.80
2022-07-31T07:53:24.559Z,69.60
2022-07-31T07:56:09.899Z,69.60
2022-07-31T07:59:00.643Z,69.60
2022-07-31T08:01:45.923Z,69.60
2022-07-31T08:04:20.262Z,69.40
2022-07-31T08:06:47.341Z,69.20
2022-07-31T08:09:14.120Z,69.10
2022-07-31T08:12:00.490Z,69.10
2022-07-31T08:14:47.217Z,69.20
2022-07-31T08:17:32.511Z,69.40
2022-07-31T08:19:59.254Z,69.40
2022-07-31T08:22:26.043Z,69.60
2022-07-31T08:24:52.781Z,69.60
2022-07-31T08:27:39.900Z,69.90
2022-07-31T08:30:08.166Z,70.30
2022-07-31T08:32:36.064Z,71.00
2022-07-31T08:35:14.392Z,72.10
2022-07-31T08:37:51.169Z,73.00
2022-07-31T08:40:30.659Z,74.30
2022-07-31T08:42:58.218Z,74.50
2022-07-31T08:45:29.204Z,75.30
2022-07-31T08:48:08.776Z,75.50
2022-07-31T08:50:48.833Z,75.90
2022-07-31T08:53:39.780Z,76.30
2022-07-31T08:56:13.372Z,76.10
2022-07-31T08:58:40.268Z,76.40
2022-07-31T09:01:11.230Z,76.00
2022-07-31T09:03:38.562Z,75.50
2022-07-31T09:06:07.066Z,75.00
2022-07-31T09:08:36.034Z,74.80
2022-07-31T09:11:05.837Z,74.20
2022-07-31T09:13:36.652Z,73.90
2022-07-31T09:16:08.921Z,73.70
2022-07-31T09:18:35.677Z,73.40
2022-07-31T09:21:07.383Z,73.30
2022-07-31T09:23:45.291Z,72.90
2022-07-31T09:26:12.738Z,72.70
2022-07-31T09:28:44.505Z,73.30
2022-07-31T09:31:13.811Z,73.30
2022-07-31T09:34:05.835Z,73.30
2022-07-31T09:36:35.415Z,73.30
2022-07-31T09:39:27.691Z,73.80
2022-07-31T09:42:38.411Z,74.50
2022-07-31T09:45:22.531Z,75.40
2022-07-31T09:48:04.045Z,75.90
2022-07-31T09:50:30.842Z,75.80
2022-07-31T09:52:59.903Z,76.20
2022-07-31T09:55:28.124Z,75.80
2022-07-31T09:57:57.468Z,75.50
2022-07-31T10:00:28.191Z,75.60
2022-07-31T10:02:56.814Z,75.00
2022-07-31T10:05:26.909Z,74.80
2022-07-31T10:08:00.426Z,73.90
2022-07-31T10:11:04.547Z,73.60
2022-07-31T10:13:45.868Z,73.70
2022-07-31T10:16:14.041Z,73.20
2022-07-31T10:19:11.659Z,71.30
2022-07-31T10:22:16.805Z,69.50
2022-07-31T10:24:47.958Z,68.50
2022-07-31T10:27:17.279Z,68.40
2022-07-31T10:29:45.574Z,69.30
2022-07-31T10:32:12.534Z,70.00
2022-07-31T10:34:53.195Z,70.60
2022-07-31T10:37:38.595Z,71.00
2022-07-31T10:40:45.234Z,71.20
2022-07-31T10:43:30.709Z,71.10
2022-07-31T10:46:31.910Z,70.40
2022-07-31T10:49:17.067Z,71.00
2022-07-31T10:52:32.639Z,72.20
2022-07-31T10:55:32.359Z,71.60
2022-07-31T10:58:21.862Z,72.80
2022-07-31T11:01:08.418Z,72.90
2022-07-31T11:03:46.764Z,72.90
2022-07-31T11:06:40.303Z,73.10
2022-07-31T11:09:51.669Z,73.40
2022-07-31T11:13:08.768Z,73.50
2022-07-31T11:16:05.097Z,73.10
2022-07-31T11:18:57.280Z,73.10
2022-07-31T11:21:40.151Z,72.90
2022-07-31T11:24:14.659Z,73.20
2022-07-31T11:26:55.829Z,73.60
2022-07-31T11:30:00.627Z,73.80
2022-07-31T11:32:25.434Z,73.90
2022-07-31T11:34:57.362Z,74.10
2022-07-31T11:37:39.490Z,74.00
2022-07-31T11:40:17.237Z,74.20
2022-07-31T11:42:46.088Z,74.40
2022-07-31T11:45:15.149Z,74.30
2022-07-31T11:48:11.293Z,74.20
2022-07-31T11:50:44.868Z,74.10
2022-07-31T11:53:11.988Z,74.50
2022-07-31T11:55:48.749Z,74.60
2022-07-31T11:58:16.789Z,74.70
2022-07-31T12:00:50.557Z,74.60
2022-07-31T12:03:19.384Z,74.90
2022-07-31T12:05:48.295Z,75.70
2022-07-31T12:08:16.002Z,74.50
2022-07-31T12:10:43.458Z,72.00
2022-07-31T12:13:19.684Z,71.30
2022-07-31T12:16:12.543Z,70.40
2022-07-31T12:19:05.454Z,69.90
2022-07-31T12:21:35.118Z,69.70
2022-07-31T12:24:02.486Z,69.00
2022-07-31T12:26:33.234Z,69.40
2022-07-31T12:29:10.742Z,69.70
2022-07-31T12:32:07.064Z,69.40
2022-07-31T12:34:35.115Z,69.50
2022-07-31T12:37:13.006Z,70.20
2022-07-31T12:39:59.328Z,70.80
2022-07-31T12:42:37.558Z,71.30
2022-07-31T12:45:18.163Z,71.00
2022-07-31T12:47:46.119Z,71.00
2022-07-31T12:50:18.203Z,69.70
2022-07-31T12:52:45.235Z,68.70
2022-07-31T12:55:12.150Z,68.60
2022-07-31T12:57:47.804Z,68.30
2022-07-31T13:00:19.439Z,68.20
2022-07-31T13:02:49.144Z,68.40
2022-07-31T13:05:16.007Z,68.30
2022-07-31T13:07:42.814Z,68.20
2022-07-31T13:10:21.462Z,68.10
2022-07-31T13:12:51.342Z,68.00
2022-07-31T13:15:19.903Z,67.90
2022-07-31T13:17:48.104Z,67.50
2022-07-31T13:20:17.490Z,66.80
2022-07-31T13:22:44.214Z,66.30
2022-07-31T13:25:11.049Z,65.70
2022-07-31T13:27:37.952Z,65.90
2022-07-31T13:30:05.372Z,65.80
2022-07-31T13:32:32.227Z,65.50
2022-07-31T13:35:25.887Z,65.30
2022-07-31T13:37:48.797Z,65.40
2022-07-31T13:40:15.777Z,65.80
2022-07-31T13:42:42.433Z,66.10
2022-07-31T13:45:10.017Z,66.40
2022-07-31T13:47:50.507Z,66.80
2022-07-31T13:50:21.411Z,68.70
2022-07-31T13:52:51.239Z,70.40
2022-07-31T13:55:17.971Z,72.40
2022-07-31T13:57:44.649Z,73.60
2022-07-31T14:00:12.220Z,74.30
2022-07-31T14:02:38.952Z,74.70
2022-07-31T14:05:06.064Z,73.50
2022-07-31T14:07:40.479Z,72.50
2022-07-31T14:10:17.123Z,71.60
2022-07-31T14:12:49.675Z,70.30
2022-07-31T14:15:19.152Z,69.40
2022-07-31T14:17:45.926Z,69.80
2022-07-31T14:20:13.331Z,70.40
2022-07-31T14:22:40.245Z,69.50
2022-07-31T14:25:07.222Z,70.00
2022-07-31T14:27:34.533Z,70.40
2022-07-31T14:30:01.641Z,71.00
2022-07-31T14:32:30.433Z,71.70
2022-07-31T14:34:57.257Z,72.50
2022-07-31T14:37:24.008Z,73.70
2022-07-31T14:39:50.740Z,74.80
2022-07-31T14:42:22.229Z,75.80
2022-07-31T14:44:52.217Z,77.20
2022-07-31T14:47:18.898Z,77.80
2022-07-31T14:50:09.425Z,78.30
2022-07-31T14:52:36.999Z,79.40
2022-07-31T14:55:04.131Z,80.60
2022-07-31T14:57:31.572Z,80.40
2022-07-31T14:59:58.478Z,80.60
2022-07-31T15:02:31.024Z,80.00
2022-07-31T15:04:57.677Z,79.70
2022-07-31T15:07:48.087Z,79.50
2022-07-31T15:10:15.123Z,78.40
2022-07-31T15:12:41.844Z,78.90
2022-07-31T15:15:09.343Z,78.90
2022-07-31T15:17:36.053Z,78.60
2022-07-31T15:20:03.424Z,79.10
2022-07-31T15:22:30.164Z,80.00
2022-07-31T15:24:57.130Z,81.30
2022-07-31T15:27:24.810Z,81.00
2022-07-31T15:30:00.632Z,80.10
2022-07-31T15:32:33.929Z,79.20
2022-07-31T15:35:00.742Z,78.70
2022-07-31T15:37:27.570Z,78.80
2022-07-31T15:40:02.127Z,79.20
2022-07-31T15:42:34.048Z,79.30
2022-07-31T15:45:01.756Z,79.00
2022-07-31T15:47:30.534Z,79.70
2022-07-31T15:49:57.227Z,79.50
2022-07-31T15:52:27.042Z,79.00
2022-07-31T15:54:53.725Z,79.30
2022-07-31T15:57:24.072Z,79.60
2022-07-31T15:59:54.166Z,78.60
2022-07-31T16:02:22.085Z,77.80
2022-07-31T16:04:53.800Z,76.80
2022-07-31T16:08:29.715Z,76.70
2022-07-31T16:10:14.965Z,77.00
2022-07-31T16:12:47.054Z,77.90
2022-07-31T16:15:14.662Z,77.00
2022-07-31T16:17:41.723Z,75.80
2022-07-31T16:20:11.776Z,75.60
2022-07-31T16:22:40.241Z,76.00
2022-07-31T16:25:08.104Z,76.10
2022-07-31T16:27:37.987Z,76.30
2022-07-31T16:30:10.351Z,76.40
2022-07-31T16:32:37.124Z,75.90
2022-07-31T16:35:06.135Z,74.50
2022-07-31T16:37:50.118Z,73.90
2022-07-31T16:40:28.152Z,73.60
2022-07-31T16:42:56.436Z,73.80
2022-07-31T16:45:23.323Z,74.10
2022-07-31T16:47:51.340Z,74.90
2022-07-31T16:50:18.387Z,75.00
2022-07-31T16:52:45.136Z,74.10
2022-07-31T16:55:11.803Z,73.60
2022-07-31T16:57:38.615Z,73.40
2022-07-31T17:00:06.135Z,73.70
2022-07-31T17:02:33.141Z,73.80
2022-07-31T17:04:59.858Z,74.40
2022-07-31T17:07:26.579Z,75.00
2022-07-31T17:09:53.298Z,75.20
2022-07-31T17:12:20.422Z,75.60
2022-07-31T17:14:48.511Z,75.40
2022-07-31T17:17:16.619Z,75.30
2022-07-31T17:19:46.882Z,75.40
2022-07-31T17:22:17.840Z,75.70
2022-07-31T17:24:50.556Z,76.00
2022-07-31T17:27:18.518Z,76.00
2022-07-31T17:29:47.456Z,76.50
2022-07-31T17:32:14.188Z,76.80
2022-07-31T17:34:40.979Z,76.90
2022-07-31T17:37:08.193Z,77.20
2022-07-31T17:39:38.343Z,77.50
2022-07-31T17:42:10.217Z,77.50
2022-07-31T17:44:39.847Z,78.00
2022-07-31T17:47:08.182Z,78.30
2022-07-31T17:49:37.842Z,78.60
2022-07-31T17:52:05.180Z,78.80
2022-07-31T17:54:33.318Z,79.10
2022-07-31T17:57:00.334Z,79.80
2022-07-31T17:59:27.511Z,80.10
2022-07-31T18:02:00.948Z,80.30
2022-07-31T18:04:29.610Z,80.60
2022-07-31T18:06:57.717Z,80.60
2022-07-31T18:09:25.346Z,80.90
2022-07-31T18:11:52.736Z,81.00
2022-07-31T18:14:20.165Z,81.10
2022-07-31T18:16:47.551Z,81.30
2022-07-31T18:19:14.574Z,81.50
2022-07-31T18:21:41.410Z,81.70
2022-07-31T18:24:08.468Z,81.80
2022-07-31T18:26:37.940Z,81.90
2022-07-31T18:29:06.302Z,81.80
2022-07-31T18:31:36.302Z,81.90
2022-07-31T18:34:07.033Z,82.30
2022-07-31T18:36:36.078Z,82.00
2022-07-31T18:39:04.636Z,82.10
2022-07-31T18:41:31.935Z,82.40
2022-07-31T18:43:58.664Z,82.60
2022-07-31T18:46:32.082Z,82.70
2022-07-31T18:49:01.970Z,82.90
2022-07-31T18:51:29.776Z,82.90
2022-07-31T18:53:58.741Z,83.00
2022-07-31T18:56:28.346Z,83.20
2022-07-31T18:58:55.133Z,83.20
2022-07-31T19:01:24.407Z,83.30
2022-07-31T19:03:51.702Z,83.40
2022-07-31T19:06:18.992Z,83.50
2022-07-31T19:08:46.116Z,83.20
2022-07-31T19:11:15.040Z,83.10
2022-07-31T19:13:41.740Z,83.20
2022-07-31T19:16:08.471Z,83.20
2022-07-31T19:18:36.464Z,83.30
2022-07-31T19:21:23.412Z,83.20
2022-07-31T19:23:50.357Z,83.30
2022-07-31T19:26:17.395Z,83.40
2022-07-31T19:28:44.253Z,83.50
2022-07-31T19:31:13.125Z,83.50
2022-07-31T19:33:40.459Z,83.50
2022-07-31T19:36:07.448Z,83.50
2022-07-31T19:38:35.860Z,83.50
2022-07-31T19:41:03.449Z,83.70
2022-07-31T19:43:30.650Z,83.70
2022-07-31T19:45:57.553Z,83.60
2022-07-31T19:48:41.459Z,83.60
2022-07-31T19:51:09.956Z,83.60
2022-07-31T19:53:37.300Z,83.70
2022-07-31T19:56:07.151Z,83.70
2022-07-31T19:58:35.235Z,83.80
2022-07-31T20:01:03.632Z,83.70
2022-07-31T20:03:30.498Z,83.70
2022-07-31T20:05:57.689Z,84.30
2022-07-31T20:08:24.414Z,83.70
2022-07-31T20:10:51.675Z,83.70
2022-07-31T20:13:21.690Z,83.80
2022-07-31T20:15:51.504Z,83.60
2022-07-31T20:18:27.259Z,83.70
2022-07-31T20:21:07.279Z,83.80
2022-07-31T20:23:38.195Z,83.70
2022-07-31T20:26:10.198Z,83.70
2022-07-31T20:28:39.977Z,83.70
2022-07-31T20:31:08.360Z,83.80
2022-07-31T20:33:57.699Z,83.80
2022-07-31T20:36:26.125Z,83.80
2022-07-31T20:38:53.005Z,83.80
2022-07-31T20:41:19.819Z,83.80
2022-07-31T20:43:46.544Z,83.80
2022-07-31T20:46:15.644Z,83.70
2022-07-31T20:48:44.430Z,83.80
2022-07-31T20:51:15.912Z,83.90
2022-07-31T20:53:43.947Z,84.00
2022-07-31T20:56:10.811Z,84.10
2022-07-31T20:58:37.530Z,84.10
2022-07-31T21:01:04.306Z,84.00
2022-07-31T21:03:31.047Z,84.00
2022-07-31T21:05:57.765Z,83.90
2022-07-31T21:08:24.880Z,84.00
2022-07-31T21:10:51.599Z,84.00
2022-07-31T21:13:18.752Z,84.00
2022-07-31T21:15:45.611Z,84.00
2022-07-31T21:18:16.385Z,84.00
2022-07-31T21:20:52.142Z,84.00
2022-07-31T21:23:24.318Z,84.00
2022-07-31T21:25:55.776Z,84.00
2022-07-31T21:28:23.580Z,84.00
2022-07-31T21:30:50.892Z,84.00
2022-07-31T21:33:18.017Z,83.90
2022-07-31T21:35:45.782Z,83.90
2022-07-31T21:38:15.138Z,83.90
2022-07-31T21:40:42.348Z,83.70
2022-07-31T21:43:09.598Z,83.70
2022-07-31T21:45:51.069Z,83.60
2022-07-31T21:48:25.697Z,83.70
2022-07-31T21:50:53.340Z,83.50
2022-07-31T21:53:20.061Z,83.30
2022-07-31T21:55:46.783Z,83.10
2022-07-31T21:58:13.482Z,82.90
2022-07-31T22:00:40.298Z,82.70
2022-07-31T22:03:07.088Z,82.60
2022-07-31T22:05:53.010Z,82.60
2022-07-31T22:08:20.492Z,82.50
2022-07-31T22:10:49.336Z,82.40
2022-07-31T22:13:16.062Z,82.40
2022-07-31T22:15:57.011Z,82.20
2022-07-31T22:18:32.123Z,82.20
2022-07-31T22:21:00.358Z,82.30
2022-07-31T22:23:28.490Z,82.50
2022-07-31T22:25:55.940Z,82.60
2022-07-31T22:28:23.636Z,82.60
2022-07-31T22:30:51.340Z,82.70
2022-07-31T22:33:18.118Z,82.90
2022-07-31T22:35:44.966Z,82.90
2022-07-31T22:38:27.864Z,82.70
2022-07-31T22:40:54.603Z,82.80
2022-07-31T22:44:10.132Z,82.60
2022-07-31T22:46:09.742Z,82.70
2022-07-31T22:48:36.562Z,82.60
2022-07-31T22:51:04.108Z,82.70
2022-07-31T22:53:30.795Z,82.60
2022-07-31T22:55:57.491Z,82.60
2022-07-31T22:58:24.589Z,82.50
2022-07-31T23:00:51.511Z,82.50
2022-07-31T23:03:18.264Z,82.50
2022-07-31T23:06:03.616Z,82.60
2022-07-31T23:08:31.615Z,82.60
2022-07-31T23:10:58.318Z,82.60
2022-07-31T23:13:25.024Z,82.60
2022-07-31T23:15:51.709Z,82.60
2022-07-31T23:18:18.473Z,82.70
2022-07-31T23:20:45.165Z,82.70
2022-07-31T23:23:11.784Z,82.70
2022-07-31T23:25:38.451Z,82.40
2022-07-31T23:28:05.331Z,82.60
2022-07-31T23:30:32.029Z,82.70
2022-07-31T23:32:58.696Z,82.80
2022-07-31T23:35:25.420Z,82.70
2022-07-31T23:37:52.078Z,82.70
2022-07-31T23:40:18.806Z,82.70
2022-07-31T23:42:45.451Z,82.70
2022-07-31T23:45:15.617Z,82.80
2022-07-31T23:47:46.105Z,82.90
2022-07-31T23:50:15.114Z,82.80
2022-07-31T23:52:43.343Z,82.80
2022-07-31T23:55:10.317Z,82.80
2022-07-31T23:57:36.997Z,82.80
